Time;durP1;ratioP1;P1;durP2;ratioP2;P2;SDS_P1;SDS_P2;PMS_P1;PMS_P2;Temp;Humidity;BMP_temperature;BMP_pressure;BME280_temperature;BME280_humidity;BME280_pressure;Samples;Min_cycle;Max_cycle;Signal;HPM_P1;HPM_P2
2022/07/27 00:01:13;;;;;;;11.40;10.47;;;;;;;25.87;53.46;98842.44;5089711;28;20190;-57
2022/07/27 00:03:40;;;;;;;12.37;11.27;;;;;;;25.88;53.09;98841.50;5089847;28;20199;-57
2022/07/27 00:06:07;;;;;;;13.00;11.13;;;;;;;25.85;53.43;98844.31;5089943;28;20210;-57
2022/07/27 00:08:34;;;;;;;12.17;11.17;;;;;;;25.78;53.33;98835.91;5089763;28;20186;-58
2022/07/27 00:11:01;;;;;;;11.53;10.53;;;;;;;25.84;53.63;98842.63;5089888;28;20183;-58
2022/07/27 00:13:30;;;;;;;13.90;12.13;;;;;;;25.86;53.83;98854.75;5089648;28;20194;-57
2022/07/27 00:15:57;;;;;;;13.60;12.33;;;;;;;25.50;54.89;98855.00;5090755;28;20194;-57
2022/07/27 00:18:24;;;;;;;13.50;12.20;;;;;;;25.61;54.70;98859.66;5093698;28;20212;-58
2022/07/27 00:20:50;;;;;;;17.07;13.00;;;;;;;25.65;54.52;98858.59;5093387;28;20194;-57
2022/07/27 00:23:17;;;;;;;16.33;14.63;;;;;;;25.60;54.78;98856.19;5093380;28;20620;-57
2022/07/27 00:25:44;;;;;;;16.20;14.50;;;;;;;25.66;54.69;98860.25;5093372;28;20198;-57
2022/07/27 00:28:11;;;;;;;15.48;14.00;;;;;;;25.71;54.47;98856.44;5093220;28;20252;-57
2022/07/27 00:30:39;;;;;;;17.15;15.45;;;;;;;25.73;54.57;98861.63;5093198;28;20669;-57
2022/07/27 00:33:06;;;;;;;15.97;14.43;;;;;;;25.51;54.85;98826.91;5093465;28;20195;-57
2022/07/27 00:35:33;;;;;;;15.87;14.37;;;;;;;25.71;54.92;98863.50;5093397;28;20214;-57
2022/07/27 00:38:00;;;;;;;18.88;16.48;;;;;;;25.75;54.99;98859.75;5093083;28;20213;-57
2022/07/27 00:40:27;;;;;;;18.17;16.37;;;;;;;25.73;54.91;98870.38;5092984;28;20226;-58
2022/07/27 00:42:53;;;;;;;19.40;17.40;;;;;;;25.80;55.02;98862.97;5092345;28;20436;-57
2022/07/27 00:45:20;;;;;;;18.13;16.33;;;;;;;25.86;54.86;98862.66;5093340;28;20195;-57
2022/07/27 00:47:49;;;;;;;18.90;15.77;;;;;;;25.91;54.82;98865.88;5092778;28;20688;-58
2022/07/27 00:50:15;;;;;;;18.35;16.48;;;;;;;25.92;54.68;98864.09;5092951;28;20191;-57
2022/07/27 00:52:43;;;;;;;19.27;16.30;;;;;;;25.90;54.56;98863.34;5092856;28;20236;-57
2022/07/27 00:55:10;;;;;;;17.92;15.60;;;;;;;25.93;54.94;98858.72;5092732;28;20191;-58
2022/07/27 00:57:36;;;;;;;17.50;15.55;;;;;;;25.92;55.32;98874.63;5092513;28;20226;-57
2022/07/27 01:00:05;;;;;;;15.77;14.23;;;;;;;25.88;56.41;98863.41;5092451;28;20214;-57
2022/07/27 01:02:32;;;;;;;15.30;13.93;;;;;;;25.84;56.81;98866.31;5092862;28;20627;-57
2022/07/27 01:05:00;;;;;;;17.20;15.43;;;;;;;25.83;56.85;98869.84;5092695;28;20198;-57
2022/07/27 01:07:30;;;;;;;16.47;14.97;;;;;;;25.84;57.22;98868.94;5092626;28;20195;-58
2022/07/27 01:09:58;;;;;;;16.77;15.05;;;;;;;25.78;57.38;98865.72;5092618;28;20653;-57
2022/07/27 01:12:27;;;;;;;15.87;14.47;;;;;;;25.73;57.56;98870.38;5092695;28;20532;-57
2022/07/27 01:14:55;;;;;;;16.97;15.30;;;;;;;25.68;57.64;98874.22;5092413;28;20190;-57
2022/07/27 01:17:22;;;;;;;16.17;14.30;;;;;;;25.66;57.84;98865.53;5092339;28;20681;-57
2022/07/27 01:19:49;;;;;;;16.73;15.18;;;;;;;25.67;58.07;98868.09;5092352;28;20219;-57
2022/07/27 01:22:18;;;;;;;16.13;14.02;;;;;;;25.67;57.92;98869.88;5092228;28;20256;-57
2022/07/27 01:24:45;;;;;;;16.15;14.75;;;;;;;25.63;58.35;98876.22;5092503;28;20569;-57
2022/07/27 01:27:12;;;;;;;17.87;15.80;;;;;;;25.58;58.15;98863.31;5091870;28;20256;-57
2022/07/27 01:29:40;;;;;;;16.90;15.10;;;;;;;25.60;58.34;98876.41;5092211;28;20194;-57
2022/07/27 01:32:07;;;;;;;17.23;15.57;;;;;;;25.46;58.55;98881.53;5092063;28;20191;-57
2022/07/27 01:34:34;;;;;;;17.27;15.50;;;;;;;25.14;60.09;98877.97;5092056;28;20203;-57
2022/07/27 01:37:02;;;;;;;17.93;16.10;;;;;;;25.19;59.91;98881.19;5092030;28;20245;-57
2022/07/27 01:39:31;;;;;;;21.30;17.90;;;;;;;25.12;59.76;98880.69;5091714;28;20705;-57
2022/07/27 01:41:58;;;;;;;18.50;16.57;;;;;;;24.98;59.74;98879.69;5091793;28;20206;-57
2022/07/27 01:44:26;;;;;;;17.50;15.70;;;;;;;24.89;60.38;98882.78;5091245;28;20455;-57
2022/07/27 01:46:53;;;;;;;16.97;15.47;;;;;;;24.78;60.39;98878.06;5091893;28;20194;-57
2022/07/27 01:49:19;;;;;;;16.67;14.97;;;;;;;24.74;61.02;98878.31;5091740;28;20194;-57
2022/07/27 01:51:46;;;;;;;16.20;14.47;;;;;;;24.76;60.52;98879.06;5091651;28;20187;-57
2022/07/27 01:54:13;;;;;;;14.67;13.17;;;;;;;24.68;60.54;98874.22;5091641;28;20282;-57
2022/07/27 01:56:42;;;;;;;15.07;13.63;;;;;;;24.66;60.52;98876.06;5091510;28;20252;-58
2022/07/27 01:59:09;;;;;;;14.97;13.47;;;;;;;24.72;60.69;98875.78;5091493;28;20692;-57
2022/07/27 02:01:35;;;;;;;14.43;12.93;;;;;;;24.71;60.47;98878.47;5091999;28;20191;-58
2022/07/27 02:04:02;;;;;;;19.57;17.57;;;;;;;24.55;60.88;98881.03;5091321;28;20187;-57
2022/07/27 02:06:29;;;;;;;24.27;19.23;;;;;;;24.50;61.26;98880.41;5091353;28;20722;-57
2022/07/27 02:08:56;;;;;;;24.67;19.77;;;;;;;24.45;61.55;98882.38;5091489;28;20194;-57
2022/07/27 02:14:08;;;;;;;37.27;26.47;;;;;;;24.54;61.04;98888.03;5091383;28;20194;-57
2022/07/27 02:16:35;;;;;;;39.60;24.37;;;;;;;24.47;61.69;98877.94;5091307;28;20191;-57
2022/07/27 02:19:02;;;;;;;29.17;23.53;;;;;;;24.48;61.80;98885.72;5090918;28;20190;-57
2022/07/27 02:21:29;;;;;;;34.77;26.07;;;;;;;24.51;61.52;98888.19;5091101;28;20195;-57
2022/07/27 02:23:56;;;;;;;31.55;25.83;;;;;;;24.46;62.16;98882.31;5090091;28;20955;-57
2022/07/27 02:26:23;;;;;;;24.03;19.53;;;;;;;24.56;61.76;98880.94;5091177;28;20209;-57
2022/07/27 02:28:50;;;;;;;30.37;21.10;;;;;;;24.51;62.31;98882.09;5090991;28;20195;-58
2022/07/27 02:31:18;;;;;;;21.40;18.37;;;;;;;24.53;62.30;98883.72;5090839;28;20191;-58
2022/07/27 02:33:45;;;;;;;20.20;15.87;;;;;;;24.53;62.30;98888.13;5090990;28;20191;-57
2022/07/27 02:36:11;;;;;;;23.57;16.20;;;;;;;24.54;62.34;98880.16;5091015;28;20191;-57
2022/07/27 02:38:38;;;;;;;17.63;15.80;;;;;;;24.59;62.93;98886.03;5090684;28;20195;-57
2022/07/27 02:41:05;;;;;;;17.87;15.47;;;;;;;24.57;63.46;98881.78;5089990;28;20218;-57
2022/07/27 02:43:32;;;;;;;16.53;14.83;;;;;;;24.55;63.13;98881.03;5090840;28;20199;-57
2022/07/27 02:45:59;;;;;;;19.83;16.60;;;;;;;24.59;63.40;98874.66;5089924;28;20849;-57
2022/07/27 02:48:27;;;;;;;19.07;14.97;;;;;;;24.69;63.07;98882.94;5091082;28;20695;-57
2022/07/27 02:50:54;;;;;;;18.63;15.73;;;;;;;24.60;63.16;98882.50;5090572;28;20190;-57
2022/07/27 02:53:20;;;;;;;18.10;15.30;;;;;;;24.59;63.45;98891.28;5090637;28;20195;-57
2022/07/27 02:55:47;;;;;;;17.70;15.00;;;;;;;24.64;63.20;98891.03;5090487;28;20195;-57
2022/07/27 02:58:14;;;;;;;16.30;14.60;;;;;;;24.67;62.89;98894.38;5090430;28;20233;-57
2022/07/27 03:00:41;;;;;;;19.10;14.77;;;;;;;24.63;63.28;98892.00;5090382;28;20214;-58
2022/07/27 03:03:08;;;;;;;16.10;13.87;;;;;;;24.61;62.66;98893.84;5090577;28;20205;-57
2022/07/27 03:05:36;;;;;;;16.37;14.77;;;;;;;24.69;62.87;98898.72;5090605;28;20296;-57
2022/07/27 03:08:03;;;;;;;17.13;15.40;;;;;;;24.71;62.29;98897.72;5090312;28;20194;-57
2022/07/27 03:10:30;;;;;;;18.00;15.10;;;;;;;24.74;62.70;98904.59;5090385;28;20661;-57
2022/07/27 03:12:57;;;;;;;17.20;15.43;;;;;;;24.76;62.21;98893.06;5090323;28;20195;-57
2022/07/27 03:15:24;;;;;;;20.27;15.93;;;;;;;24.78;62.38;98895.63;5090136;28;20194;-57
2022/07/27 03:17:51;;;;;;;18.70;16.67;;;;;;;24.76;62.46;98902.72;5090631;28;20195;-57
2022/07/27 03:20:18;;;;;;;21.67;17.30;;;;;;;24.74;62.97;98897.56;5090293;28;20214;-57
2022/07/27 03:22:46;;;;;;;23.57;16.23;;;;;;;24.77;63.09;98905.28;5090206;28;20201;-57
2022/07/27 03:25:13;;;;;;;19.92;17.83;;;;;;;24.84;62.82;98911.09;5089430;28;20428;-57
2022/07/27 03:27:40;;;;;;;19.83;17.77;;;;;;;24.97;62.31;98912.19;5089898;28;20199;-57
2022/07/27 03:30:08;;;;;;;24.57;18.70;;;;;;;24.96;62.50;98908.72;5090143;28;20727;-57
2022/07/27 03:32:35;;;;;;;22.43;19.17;;;;;;;25.03;62.80;98927.63;5090231;28;20194;-58
2022/07/27 03:35:03;;;;;;;21.17;18.87;;;;;;;24.91;62.89;98923.88;5089806;28;20191;-58
2022/07/27 03:37:29;;;;;;;22.43;18.70;;;;;;;24.96;62.97;98923.63;5089783;28;20642;-58
2022/07/27 03:39:58;;;;;;;20.73;18.53;;;;;;;25.01;62.89;98932.13;5089667;28;20696;-57
2022/07/27 03:42:24;;;;;;;22.87;20.40;;;;;;;25.00;62.45;98930.41;5089783;28;20190;-57
2022/07/27 03:44:52;;;;;;;21.87;19.77;;;;;;;24.88;62.41;98924.03;5089793;28;20198;-57
2022/07/27 03:47:19;;;;;;;22.23;19.95;;;;;;;24.96;62.62;98927.09;5088757;28;20443;-57
2022/07/27 03:49:47;;;;;;;23.83;20.73;;;;;;;25.01;62.57;98938.25;5089886;28;20293;-57
2022/07/27 03:52:14;;;;;;;22.40;20.30;;;;;;;25.04;63.09;98945.97;5092922;28;20756;-57
2022/07/27 03:54:40;;;;;;;29.37;20.47;;;;;;;24.97;63.58;98936.69;5093477;28;20665;-58
2022/07/27 03:57:09;;;;;;;22.00;19.63;;;;;;;24.96;63.36;98945.50;5093445;28;20230;-57
2022/07/27 03:59:35;;;;;;;21.23;19.13;;;;;;;24.85;63.36;98942.56;5093618;28;20187;-57
2022/07/27 04:02:02;;;;;;;25.87;18.57;;;;;;;24.78;63.19;98943.75;5093384;28;20195;-58
2022/07/27 04:04:29;;;;;;;21.47;19.17;;;;;;;24.78;63.17;98942.94;5092980;28;20198;-57
2022/07/27 04:06:56;;;;;;;18.63;16.90;;;;;;;24.77;62.58;98944.72;5093350;28;20220;-58
2022/07/27 04:09:23;;;;;;;21.20;19.00;;;;;;;24.80;62.32;98939.34;5093101;28;20658;-58
2022/07/27 04:11:51;;;;;;;21.03;18.33;;;;;;;24.71;62.58;98952.03;5093450;28;20190;-58
2022/07/27 04:14:19;;;;;;;21.27;19.17;;;;;;;24.68;62.49;98953.03;5093280;28;20202;-58
2022/07/27 04:16:46;;;;;;;21.60;19.40;;;;;;;24.63;63.21;98955.91;5093239;28;20195;-58
2022/07/27 04:19:13;;;;;;;23.43;20.53;;;;;;;24.64;63.85;98956.72;5093074;28;20191;-58
2022/07/27 04:21:40;;;;;;;21.20;19.10;;;;;;;24.62;63.38;98962.06;5092952;28;20211;-58
2022/07/27 04:24:07;;;;;;;22.27;20.10;;;;;;;24.54;63.30;98966.84;5092515;28;20440;-57
2022/07/27 04:26:35;;;;;;;22.43;18.73;;;;;;;24.58;62.91;98962.31;5093132;28;20194;-57
2022/07/27 04:29:02;;;;;;;20.97;19.07;;;;;;;24.58;63.01;98968.38;5093004;28;20195;-57
2022/07/27 04:31:30;;;;;;;24.33;19.67;;;;;;;24.58;62.57;98971.00;5092675;28;20191;-57
2022/07/27 04:33:57;;;;;;;21.00;19.10;;;;;;;24.60;62.52;98973.59;5092890;28;20194;-57
2022/07/27 04:36:24;;;;;;;21.33;19.13;;;;;;;24.63;62.05;98970.81;5092812;28;20199;-58
2022/07/27 04:38:50;;;;;;;24.70;19.53;;;;;;;24.65;62.18;98961.06;5093114;28;20561;-57
2022/07/27 04:41:17;;;;;;;19.80;18.10;;;;;;;24.75;61.79;98974.63;5092792;28;20219;-58
2022/07/27 04:43:44;;;;;;;19.63;17.73;;;;;;;24.77;60.94;98968.34;5092784;28;20202;-57
2022/07/27 04:46:12;;;;;;;20.13;18.03;;;;;;;24.76;60.90;98974.53;5092225;28;20439;-57
2022/07/27 04:48:40;;;;;;;20.03;17.87;;;;;;;24.61;61.48;98981.38;5092513;28;20857;-57
2022/07/27 04:51:07;;;;;;;19.47;17.57;;;;;;;24.66;61.57;98978.53;5092455;28;20191;-58
2022/07/27 04:53:35;;;;;;;20.83;17.37;;;;;;;24.60;61.50;98976.22;5092107;28;20191;-58
2022/07/27 04:56:02;;;;;;;19.50;17.53;;;;;;;24.62;61.36;98977.84;5092461;28;20285;-58
2022/07/27 04:58:29;;;;;;;19.23;17.33;;;;;;;24.61;61.46;98983.19;5092206;28;20729;-58
2022/07/27 05:00:55;;;;;;;20.90;17.90;;;;;;;24.63;61.73;98986.56;5092235;28;20222;-58
2022/07/27 05:03:24;;;;;;;21.03;18.43;;;;;;;24.71;62.11;98987.03;5091405;28;20191;-57
2022/07/27 05:05:53;;;;;;;18.13;16.53;;;;;;;24.67;61.65;98997.78;5092769;28;20219;-57
2022/07/27 05:08:20;;;;;;;18.17;16.47;;;;;;;24.75;61.80;98995.63;5092357;28;20195;-57
2022/07/27 05:10:47;;;;;;;19.17;17.37;;;;;;;24.75;61.70;98991.22;5092440;28;20202;-58
2022/07/27 05:13:14;;;;;;;18.77;16.93;;;;;;;24.91;61.86;98988.72;5092196;28;20248;-58
2022/07/27 05:15:41;;;;;;;21.40;17.07;;;;;;;25.01;61.41;99001.31;5092049;28;20693;-58
2022/07/27 05:18:07;;;;;;;19.80;17.33;;;;;;;25.05;61.18;98999.41;5092252;28;20191;-58
2022/07/27 05:20:34;;;;;;;19.63;17.43;;;;;;;25.11;61.47;98999.94;5091998;28;20228;-57
2022/07/27 05:23:02;;;;;;;20.43;17.03;;;;;;;25.18;61.09;99003.97;5091975;28;20203;-57
2022/07/27 05:25:29;;;;;;;19.17;17.17;;;;;;;25.24;61.08;99001.00;5091654;28;20524;-58
2022/07/27 05:27:56;;;;;;;20.03;17.17;;;;;;;25.35;61.28;99002.25;5091656;28;20673;-57
2022/07/27 05:30:24;;;;;;;19.20;17.43;;;;;;;25.42;61.00;99008.88;5091491;28;20186;-58
2022/07/27 05:32:51;;;;;;;17.30;15.67;;;;;;;25.53;60.87;99001.31;5091599;28;20240;-59
2022/07/27 05:35:18;;;;;;;19.30;17.30;;;;;;;25.62;60.75;99006.97;5091760;28;20195;-59
2022/07/27 05:37:45;;;;;;;18.83;16.92;;;;;;;25.67;60.50;99015.47;5091536;28;20190;-58
2022/07/27 05:40:14;;;;;;;19.93;17.93;;;;;;;25.68;60.60;99005.78;5091127;28;20696;-59
2022/07/27 05:42:42;;;;;;;18.73;16.80;;;;;;;25.74;60.15;99016.81;5091032;28;20183;-58
2022/07/27 05:45:10;;;;;;;18.77;17.00;;;;;;;25.69;60.44;99016.22;5091071;28;20263;-58
2022/07/27 05:47:38;;;;;;;20.35;18.30;;;;;;;25.73;60.47;99032.72;5090625;28;20448;-59
2022/07/27 05:50:06;;;;;;;19.87;17.77;;;;;;;25.76;60.79;99014.97;5090918;28;20195;-58
2022/07/27 05:52:33;;;;;;;18.80;17.10;;;;;;;25.97;60.36;99015.59;5090825;28;20657;-58
2022/07/27 05:55:00;;;;;;;19.17;17.27;;;;;;;26.07;60.47;99014.16;5090859;28;20194;-58
2022/07/27 05:57:28;;;;;;;18.63;16.55;;;;;;;26.29;59.94;99021.78;5090503;28;20218;-58
2022/07/27 05:59:57;;;;;;;17.67;15.98;;;;;;;26.44;59.09;99020.94;5090743;28;20195;-58
2022/07/27 06:02:26;;;;;;;18.17;16.37;;;;;;;26.58;57.42;99015.75;5090506;28;20585;-58
2022/07/27 06:04:53;;;;;;;19.42;16.42;;;;;;;26.65;56.49;99016.22;5090848;28;20187;-58
2022/07/27 06:10:05;;;;;;;22.10;16.52;;;;;;;26.74;55.47;99007.81;5090610;28;20675;-58
2022/07/27 06:12:38;;;;;;;18.30;16.48;;;;;;;26.75;55.67;99012.16;5090863;28;20198;-58
2022/07/27 06:15:06;;;;;;;16.85;15.25;;;;;;;26.83;55.21;99005.53;5090817;28;20187;-58
2022/07/27 06:17:33;;;;;;;18.03;16.13;;;;;;;26.93;54.95;99011.13;5090389;28;20202;-58
2022/07/27 06:20:00;;;;;;;20.03;16.43;;;;;;;27.02;54.95;99010.59;5090385;28;20203;-58
2022/07/27 06:22:27;;;;;;;17.13;15.55;;;;;;;27.07;54.41;99007.69;5090697;28;20197;-58
2022/07/27 06:24:54;;;;;;;20.90;16.23;;;;;;;27.09;54.42;98995.25;5090297;28;20194;-58
2022/07/27 06:27:21;;;;;;;16.88;15.20;;;;;;;27.22;54.31;99006.78;5089431;28;20517;-58
2022/07/27 06:29:49;;;;;;;17.25;15.52;;;;;;;27.38;53.81;99003.16;5090418;28;20195;-58
2022/07/27 06:32:16;;;;;;;17.40;15.65;;;;;;;27.52;53.47;99011.09;5090236;28;20248;-58
2022/07/27 06:34:43;;;;;;;16.55;14.85;;;;;;;27.56;52.85;99001.22;5090181;28;20195;-58
2022/07/27 06:37:10;;;;;;;16.33;14.73;;;;;;;27.62;53.08;99006.13;5089927;28;20610;-57
2022/07/27 06:39:36;;;;;;;17.90;14.75;;;;;;;27.76;53.09;99003.50;5090319;28;20190;-57
2022/07/27 06:42:04;;;;;;;16.83;15.23;;;;;;;27.91;52.29;99014.88;5090231;28;20218;-58
2022/07/27 06:44:30;;;;;;;17.13;15.43;;;;;;;27.90;52.11;99005.28;5090041;28;20199;-57
2022/07/27 06:46:59;;;;;;;17.98;16.13;;;;;;;27.90;51.92;99010.56;5090079;28;20628;-58
2022/07/27 06:49:25;;;;;;;16.67;15.17;;;;;;;27.97;51.64;99006.56;5089003;28;20439;-59
2022/07/27 06:51:52;;;;;;;16.02;14.73;;;;;;;28.15;51.48;98994.91;5089466;28;20191;-59
2022/07/27 06:54:19;;;;;;;16.48;14.80;;;;;;;28.31;51.61;98989.50;5089670;28;20191;-58
2022/07/27 06:56:46;;;;;;;17.02;15.43;;;;;;;28.41;51.16;98993.22;5089692;28;20503;-58
2022/07/27 06:59:13;;;;;;;16.58;15.13;;;;;;;28.46;50.80;98985.84;5089820;28;20256;-58
2022/07/27 07:01:40;;;;;;;17.20;15.60;;;;;;;28.52;50.52;98975.72;5089316;28;20343;-57
2022/07/27 07:04:08;;;;;;;17.17;15.65;;;;;;;28.54;49.78;98979.13;5089552;28;20191;-58
2022/07/27 07:06:36;;;;;;;16.67;15.18;;;;;;;28.59;50.02;98974.41;5089514;28;20191;-58
2022/07/27 07:09:03;;;;;;;16.52;14.90;;;;;;;28.70;50.02;98978.16;5089823;28;20191;-58
2022/07/27 07:11:30;;;;;;;16.48;14.98;;;;;;;28.81;48.55;98979.16;5089488;28;20195;-58
2022/07/27 07:13:57;;;;;;;16.65;15.13;;;;;;;28.89;48.55;98979.50;5089897;28;20222;-58
2022/07/27 07:16:24;;;;;;;15.98;14.50;;;;;;;28.91;48.62;98972.28;5089391;28;20195;-58
2022/07/27 07:18:50;;;;;;;17.13;14.73;;;;;;;28.94;47.48;98968.59;5089695;28;20191;-58
2022/07/27 07:21:19;;;;;;;16.45;14.77;;;;;;;29.05;47.56;98976.66;5089597;28;20215;-58
2022/07/27 07:23:45;;;;;;;16.73;15.10;;;;;;;29.11;47.36;98968.31;5089481;28;20732;-57
2022/07/27 07:26:12;;;;;;;16.75;15.13;;;;;;;29.16;48.01;98969.69;5088690;28;20206;-58
2022/07/27 07:28:39;;;;;;;18.30;16.50;;;;;;;29.23;47.99;98970.13;5088172;28;20428;-57
2022/07/27 07:31:06;;;;;;;17.80;15.00;;;;;;;29.40;46.46;98977.78;5089174;28;20194;-58
2022/07/27 07:33:33;;;;;;;16.77;15.23;;;;;;;29.47;46.95;98964.97;5089529;28;20204;-58
2022/07/27 07:35:59;;;;;;;16.08;14.57;;;;;;;29.52;46.05;98966.34;5089288;28;20205;-58
2022/07/27 07:38:28;;;;;;;17.35;15.45;;;;;;;29.63;47.07;98963.81;5089415;28;20210;-58
2022/07/27 07:40:55;;;;;;;16.05;14.38;;;;;;;29.66;45.95;98968.91;5089709;28;20233;-58
2022/07/27 07:43:21;;;;;;;17.00;15.38;;;;;;;29.69;46.17;98967.84;5089480;28;20538;-58
2022/07/27 07:45:48;;;;;;;16.55;15.15;;;;;;;29.76;44.80;98963.78;5089526;28;20191;-58
2022/07/27 07:48:15;;;;;;;16.50;14.80;;;;;;;29.90;45.88;98960.19;5089420;28;20191;-58
2022/07/27 07:50:42;;;;;;;17.13;15.53;;;;;;;30.02;45.49;98954.88;5089004;28;20465;-58
2022/07/27 07:53:09;;;;;;;17.52;15.88;;;;;;;30.05;44.52;98951.16;5089015;28;20443;-58
2022/07/27 07:55:37;;;;;;;17.77;16.13;;;;;;;30.18;44.41;98955.47;5089145;28;20198;-56
2022/07/27 07:58:04;;;;;;;18.30;16.63;;;;;;;30.24;43.44;98956.84;5088783;28;20681;-57
2022/07/27 08:00:31;;;;;;;18.52;16.77;;;;;;;30.24;43.57;98954.19;5089201;28;20680;-57
2022/07/27 08:02:58;;;;;;;18.38;16.67;;;;;;;29.96;42.77;98906.78;5089067;28;20661;-58
2022/07/27 08:05:25;;;;;;;18.67;17.08;;;;;;;30.28;43.34;98951.19;5089151;28;20205;-58
2022/07/27 08:07:53;;;;;;;20.35;18.45;;;;;;;30.51;43.07;98952.19;5089370;28;20202;-58
2022/07/27 08:10:21;;;;;;;19.17;17.48;;;;;;;30.67;43.32;98949.25;5088931;28;20206;-58
2022/07/27 08:12:51;;;;;;;19.98;17.83;;;;;;;30.77;42.55;98952.88;5088822;28;20191;-58
2022/07/27 08:15:19;;;;;;;19.05;17.35;;;;;;;30.87;42.08;98952.09;5088706;28;20205;-58
2022/07/27 08:17:46;;;;;;;19.63;17.83;;;;;;;31.00;41.35;98949.38;5088531;28;20191;-57
2022/07/27 08:20:15;;;;;;;18.90;17.05;;;;;;;31.16;42.04;98949.91;5088771;28;20202;-58
2022/07/27 08:22:43;;;;;;;19.77;17.77;;;;;;;31.19;41.02;98932.91;5088698;28;20691;-58
2022/07/27 08:25:11;;;;;;;19.83;17.95;;;;;;;31.35;40.74;98942.22;5088809;28;20183;-57
2022/07/27 08:27:38;;;;;;;18.73;16.83;;;;;;;31.32;40.60;98944.25;5088718;28;20198;-57
2022/07/27 08:30:08;;;;;;;22.17;19.17;;;;;;;31.42;39.87;98937.28;5087574;28;20811;-58
2022/07/27 08:32:49;;;;;;;19.20;17.50;;;;;;;31.51;38.89;98939.25;5088677;28;20191;-58
2022/07/27 08:35:17;;;;;;;21.50;17.80;;;;;;;31.55;38.43;98940.69;5088846;28;20206;-58
2022/07/27 08:37:44;;;;;;;16.55;15.15;;;;;;;31.52;36.76;98946.25;5089371;28;20191;-58
2022/07/27 08:40:12;;;;;;;19.42;17.48;;;;;;;31.60;37.26;98940.34;5092081;28;20196;-58
2022/07/27 08:42:41;;;;;;;17.63;16.00;;;;;;;31.64;37.54;98934.69;5092518;28;20219;-58
2022/07/27 08:45:12;;;;;;;17.35;15.85;;;;;;;31.79;36.64;98929.94;5092291;28;20240;-58
2022/07/27 08:47:41;;;;;;;17.75;15.95;;;;;;;31.92;36.91;98933.34;5091826;28;20194;-59
2022/07/27 08:50:22;;;;;;;18.13;16.38;;;;;;;31.99;36.83;98930.06;5091873;28;20186;-57
2022/07/27 08:52:53;;;;;;;18.93;16.93;;;;;;;32.10;37.03;98926.56;5091024;28;20818;-57
2022/07/27 08:55:21;;;;;;;20.67;15.48;;;;;;;32.34;36.65;98923.72;5091828;28;20746;-57
2022/07/27 08:57:48;;;;;;;18.17;16.15;;;;;;;32.36;35.94;98924.44;5091771;28;20231;-57
2022/07/27 09:00:17;;;;;;;18.90;17.33;;;;;;;32.46;36.83;98922.72;5092053;28;20269;-57
2022/07/27 09:02:45;;;;;;;17.40;15.70;;;;;;;32.52;35.61;98927.53;5091523;28;20214;-57
2022/07/27 09:05:11;;;;;;;16.85;15.45;;;;;;;32.53;35.94;98931.88;5091544;28;20191;-58
2022/07/27 09:07:38;;;;;;;17.77;16.17;;;;;;;32.50;36.26;98914.34;5091365;28;20594;-57
2022/07/27 09:10:07;;;;;;;17.45;15.95;;;;;;;32.54;36.17;98909.66;5091298;28;20190;-57
2022/07/27 09:12:35;;;;;;;17.80;16.13;;;;;;;32.49;35.99;98915.34;5091126;28;20662;-57
2022/07/27 09:15:08;;;;;;;17.05;15.65;;;;;;;32.30;36.20;98861.97;5091207;28;20563;-58
2022/07/27 09:17:38;;;;;;;16.67;15.32;;;;;;;32.73;36.03;98909.81;5091283;28;20191;-58
2022/07/27 09:20:08;;;;;;;17.80;16.38;;;;;;;32.78;35.66;98910.25;5091309;28;20196;-57
2022/07/27 09:22:49;;;;;;;17.27;15.50;;;;;;;32.77;35.49;98900.59;5091094;28;20592;-58
2022/07/27 09:25:19;;;;;;;19.00;17.15;;;;;;;32.85;35.38;98897.28;5091374;28;20194;-58
2022/07/27 09:27:47;;;;;;;16.80;15.25;;;;;;;32.81;35.47;98896.69;5091156;28;20646;-57
2022/07/27 09:30:17;;;;;;;17.60;16.00;;;;;;;32.81;35.87;98899.34;5090903;28;20199;-67
2022/07/27 09:33:02;;;;;;;17.00;15.45;;;;;;;32.99;35.88;98900.44;5091553;28;20248;-67
2022/07/27 09:35:32;;;;;;;19.70;16.00;;;;;;;32.91;35.38;98864.84;5091390;28;20199;-67
2022/07/27 09:38:17;;;;;;;17.98;15.52;;;;;;;33.26;34.96;98902.63;5091307;28;20281;-66
2022/07/27 09:40:45;;;;;;;17.90;16.10;;;;;;;33.37;34.80;98888.38;5091220;28;20282;-66
2022/07/27 09:43:13;;;;;;;18.20;16.20;;;;;;;33.47;34.69;98891.91;5091063;28;20217;-66
2022/07/27 09:45:43;;;;;;;17.50;15.82;;;;;;;33.57;33.66;98888.34;5091257;28;20195;-66
2022/07/27 09:48:15;;;;;;;18.13;16.33;;;;;;;33.63;33.57;98886.97;5090438;28;20218;-67
2022/07/27 09:50:45;;;;;;;16.95;15.55;;;;;;;33.50;33.37;98873.00;5091000;28;20201;-66
2022/07/27 09:53:20;;;;;;;17.63;16.02;;;;;;;33.61;33.32;98886.25;5090336;28;20429;-66
2022/07/27 09:55:58;;;;;;;16.95;15.45;;;;;;;33.73;33.50;98880.69;5090377;28;20600;-66
2022/07/27 09:58:47;;;;;;;15.57;14.20;;;;;;;33.84;33.07;98874.41;5090368;28;20226;-67
2022/07/27 10:01:16;;;;;;;17.15;15.52;;;;;;;33.83;32.97;98870.06;5087193;28;20199;-67
2022/07/27 10:03:45;;;;;;;17.02;15.52;;;;;;;33.86;32.76;98884.94;5090558;28;20191;-67
2022/07/27 10:06:13;;;;;;;18.05;16.02;;;;;;;33.92;32.94;98874.56;5091032;28;20273;-67
2022/07/27 10:08:42;;;;;;;18.05;16.25;;;;;;;33.90;32.59;98873.03;5090586;28;20191;-67
2022/07/27 10:11:09;;;;;;;17.00;15.30;;;;;;;34.01;32.23;98872.91;5090671;28;20191;-67
2022/07/27 10:13:36;;;;;;;18.35;16.52;;;;;;;33.93;32.52;98875.41;5090220;28;20191;-67
2022/07/27 10:16:04;;;;;;;16.25;14.75;;;;;;;34.04;32.77;98870.78;5090556;28;20273;-58
2022/07/27 10:18:48;;;;;;;16.55;15.02;;;;;;;34.22;31.87;98877.19;5090265;28;20195;-58
2022/07/27 10:21:15;;;;;;;15.10;13.80;;;;;;;34.27;30.78;98876.75;5090107;28;20255;-58
2022/07/27 10:23:54;;;;;;;17.38;15.73;;;;;;;34.31;30.89;98871.00;5090101;28;20217;-58
2022/07/27 10:26:28;;;;;;;16.48;14.88;;;;;;;34.26;30.94;98859.06;5090271;28;20201;-58
2022/07/27 10:28:56;;;;;;;15.95;14.40;;;;;;;34.26;30.83;98867.06;5090746;28;20194;-58
2022/07/27 10:31:25;;;;;;;16.58;15.07;;;;;;;34.35;31.50;98855.56;5089994;28;20532;-58
2022/07/27 10:33:55;;;;;;;15.68;14.27;;;;;;;34.57;30.01;98865.13;5090338;28;20585;-57
2022/07/27 10:36:50;;;;;;;16.52;15.07;;;;;;;34.63;30.18;98868.09;5090083;28;20198;-57
2022/07/27 10:39:34;;;;;;;14.73;13.52;;;;;;;34.74;29.63;98861.75;5089954;28;20557;-57
2022/07/27 10:42:19;;;;;;;15.45;13.95;;;;;;;34.75;29.14;98860.78;5089912;28;20305;-58
2022/07/27 10:45:04;;;;;;;14.93;13.63;;;;;;;34.72;28.58;98858.38;5090009;28;20197;-57
2022/07/27 10:47:35;;;;;;;13.57;11.85;;;;;;;34.75;28.13;98863.44;5089960;28;20190;-58
2022/07/27 10:50:31;;;;;;;13.52;12.43;;;;;;;34.87;27.45;98852.44;5089727;28;20191;-58
2022/07/27 10:53:04;;;;;;;12.80;11.60;;;;;;;35.00;27.42;98851.31;5090280;28;20282;-58
2022/07/27 10:55:43;;;;;;;12.27;11.27;;;;;;;34.99;27.25;98850.47;5089944;28;20198;-58
2022/07/27 10:58:46;;;;;;;12.60;11.50;;;;;;;34.98;27.40;98854.09;5089922;28;20226;-57
2022/07/27 11:01:14;;;;;;;13.32;11.95;;;;;;;35.02;26.44;98844.84;5088868;28;20208;-57
2022/07/27 11:03:46;;;;;;;13.77;12.38;;;;;;;35.15;27.01;98842.72;5089413;28;20229;-57
2022/07/27 11:06:21;;;;;;;12.98;11.88;;;;;;;35.05;26.44;98798.28;5089245;28;20190;-58
2022/07/27 11:08:49;;;;;;;13.02;11.90;;;;;;;35.33;26.47;98838.28;5089753;28;20186;-66
2022/07/27 11:11:18;;;;;;;12.90;11.80;;;;;;;35.47;26.36;98831.59;5090248;28;20202;-67
2022/07/27 11:13:45;;;;;;;13.23;12.15;;;;;;;35.45;26.44;98837.09;5089894;28;20190;-66
2022/07/27 11:16:14;;;;;;;12.82;11.75;;;;;;;35.53;26.30;98836.34;5089934;28;20274;-67
2022/07/27 11:18:42;;;;;;;13.98;11.13;;;;;;;35.68;26.15;98832.25;5089668;28;20692;-67
2022/07/27 11:21:18;;;;;;;13.10;11.20;;;;;;;35.68;24.81;98826.88;5090107;28;20267;-58
2022/07/27 11:23:47;;;;;;;12.13;11.18;;;;;;;35.81;26.02;98831.88;5089515;28;20217;-58
2022/07/27 11:26:14;;;;;;;13.25;12.07;;;;;;;35.94;26.14;98819.81;5089615;28;20247;-58
2022/07/27 11:28:41;;;;;;;12.57;11.55;;;;;;;35.97;24.58;98822.19;5089604;28;20191;-58